• Join FlightAware (Why Join?)
  • Login
  • US Flag 
10:45PM EDT


 

Airport Tracker/Info


-or-


 

Live Flight TrackerFlight Track Log ✈ SWA3321 ✈ 11-Apr-2013 ✈ KMHT - KMDW

Flight Track Log - Related Links

Times and Time Zones

All times are in EDT time to prevent confusion due to time zone crossing. See the SWA3321 flight status page for this flight to view local times or setup timezone preferences in your user account.

Time Position Orientation Groundspeed Altitude Reporting Facility
EDT Latitude Longitude Course Direction KTS MPH feet Rate Location/Type
06:40AM 42.9500 -71.4333 324° Northwest 144 166 1,300  Level KA90
06:40AM 42.9833 -71.4667 324° Northwest 176 203 2,500 2,160 Climbing KA90
06:42AM 43.0333 -71.5167 324° Northwest 211 243 5,500 2,280 Climbing KA90
06:44AM 43.0894 -71.6383 302° West 207 238 9,600 2,220 Climbing Boston Center
06:44AM 43.0983 -71.7064 280° West 191 220 12,100 2,400 Climbing Boston Center
06:46AM 43.1136 -71.8086 282° West 238 274 14,400 2,280 Climbing Boston Center
06:46AM 43.1222 -71.9111 277° West 290 334 16,700 2,340 Climbing Boston Center
06:47AM 43.1311 -72.0275 276° West 314 361 19,100 1,920 Climbing Boston Center
06:49AM 43.1419 -72.1583 277° West 331 381 21,000 2,100 Climbing Boston Center
06:50AM 43.1506 -72.3233 274° West 356 410 23,700 2,400 Climbing Boston Center
06:51AM 43.1589 -72.4714 274° West 376 433 25,900 1,920 Climbing Boston Center
06:52AM 43.1608 -72.6136 271° West 381 438 27,600 1,800 Climbing Boston Center
06:53AM 43.1564 -72.7589 268° West 386 444 29,500 1,800 Climbing Boston Center
06:54AM 43.1478 -72.9011 265° West 381 438 31,300 1,740 Climbing Boston Center
06:55AM 43.1428 -73.0433 267° West 386 444 33,000 1,680 Climbing Boston Center
06:56AM 43.1358 -73.1828 266° West 386 444 34,700 1,500 Climbing Boston Center
06:57AM 43.1306 -73.3219 267° West 381 438 36,100 1,380 Climbing Boston Center
06:58AM 43.1192 -73.4556 263° West 375 432 37,500 900 Climbing Boston Center
06:59AM 43.1114 -73.5919 266° West 365 420 38,000 240 Climbing Boston Center
07:00AM 43.1058 -73.7283 267° West 365 420 38,000  Level Boston Center
07:01AM 43.1000 -73.8647 267° West 365 420 38,000  Level Boston Center
07:02AM 43.0942 -73.9983 267° West 365 420 38,000  Level Boston Center
07:03AM 43.0839 -74.1344 264° West 365 420 38,000  Level Boston Center
07:04AM 43.0778 -74.2678 266° West 365 420 38,000  Level Boston Center
07:05AM 43.0714 -74.4014 266° West 365 420 38,000  Level Boston Center
07:06AM 43.0647 -74.5347 266° West 365 420 38,000  Level Boston Center
07:07AM 43.0558 -74.6708 265° West 365 420 38,000  Level Boston Center
07:08AM 43.0492 -74.8039 266° West 360 414 38,000  Level Boston Center
07:09AM 43.0400 -74.9344 265° West 360 414 38,000  Level Boston Center
07:10AM 43.0306 -75.0789 265° West 360 414 38,000  Level Boston Center
07:11AM 43.0211 -75.2147 265° West 360 414 38,000 -60 Level Boston Center
07:12AM 43.0136 -75.3450 266° West 355 409 37,900  Descending Boston Center
07:13AM 43.0039 -75.4808 264° West 355 409 38,000  Climbing Boston Center
07:14AM 42.9772 -75.6103 254° West 355 409 38,000  Level Boston Center
07:15AM 42.9486 -75.7422 254° West 355 409 38,000  Level Boston Center
07:16AM 42.9197 -75.8739 253° West 360 414 38,000  Level Boston Center
07:17AM 42.8925 -76.0083 255° West 360 414 38,000  Level Boston Center
07:19AM 42.8342 -76.2708 253° West 373 429 38,000  Level Cleveland Center
07:20AM 42.8056 -76.4000 253° West 367 422 38,000  Level Cleveland Center
07:21AM 42.7769 -76.5322 254° West 367 422 38,000  Level Cleveland Center
07:22AM 42.7461 -76.6669 253° West 367 422 38,000  Level Cleveland Center
07:23AM 42.7150 -76.7992 252° West 367 422 38,000  Level Cleveland Center
07:24AM 42.6858 -76.9308 253° West 367 422 38,000  Level Cleveland Center
07:25AM 42.6567 -77.0625 253° West 367 422 38,000  Level Cleveland Center
07:26AM 42.6272 -77.1939 253° West 367 422 38,000  Level Cleveland Center
07:27AM 42.5956 -77.3253 252° West 367 422 38,000  Level Cleveland Center
07:28AM 42.5639 -77.4567 252° West 367 422 38,000  Level Cleveland Center
07:29AM 42.5361 -77.5878 254° West 367 422 38,000  Level Cleveland Center
07:30AM 42.5058 -77.7189 253° West 367 422 38,000  Level Cleveland Center
07:31AM 42.4736 -77.8497 252° West 367 422 38,000  Level Cleveland Center
07:32AM 42.4453 -77.9775 253° West 367 422 38,000  Level Cleveland Center
07:33AM 42.4128 -78.1111 252° West 367 422 38,000  Level Cleveland Center
07:34AM 42.3822 -78.2417 252° West 367 422 38,000  Level Cleveland Center
07:35AM 42.3517 -78.3747 253° West 367 422 38,000  Level Cleveland Center
07:36AM 42.3225 -78.4939 252° West 367 422 38,000  Level Cleveland Center
07:37AM 42.2894 -78.6239 251° West 367 422 38,000  Level Cleveland Center
07:38AM 42.2561 -78.7597 252° West 367 422 38,000  Level Cleveland Center
07:39AM 42.2228 -78.8953 252° West 372 428 38,000  Level Cleveland Center
07:40AM 42.1892 -79.0306 252° West 378 435 38,000  Level Cleveland Center
07:41AM 42.1700 -79.1656 259° West 378 435 38,000  Level Cleveland Center
07:42AM 42.1531 -79.3061 261° West 378 435 38,000  Level Cleveland Center
07:43AM 42.1378 -79.4436 262° West 378 435 38,000  Level Cleveland Center
07:44AM 42.1203 -79.5811 260° West 372 428 38,000  Level Cleveland Center
07:45AM 42.1028 -79.7183 260° West 372 428 38,000  Level Cleveland Center
07:46AM 42.0869 -79.8558 261° West 372 428 38,000  Level Cleveland Center
07:47AM 42.0669 -79.9931 259° West 372 428 38,000  Level Cleveland Center
07:48AM 42.0508 -80.1303 261° West 372 428 38,000  Level Cleveland Center
07:49AM 42.0325 -80.2700 260° West 372 428 38,000  Level Cleveland Center
07:50AM 42.0119 -80.4211 260° West 372 428 38,000  Level Cleveland Center
07:51AM 41.9953 -80.5608 261° West 372 428 38,000  Level Cleveland Center
07:52AM 41.9744 -80.7006 259° West 372 428 38,000  Level Cleveland Center
07:53AM 41.9597 -80.8372 262° West 377 434 38,000  Level Cleveland Center
07:54AM 41.9406 -80.9767 260° West 377 434 38,000  Level Cleveland Center
07:55AM 41.9192 -81.1106 258° West 369 425 38,000  Level Cleveland Center
07:56AM 41.9017 -81.2472 260° West 374 430 38,000  Level Cleveland Center
07:57AM 41.8842 -81.3836 260° West 374 430 38,000  Level Cleveland Center
07:58AM 41.8644 -81.5144 259° West 374 430 38,000  Level Cleveland Center
07:59AM 41.8444 -81.6506 259° West 374 430 38,000  Level Cleveland Center
08:00AM 41.8264 -81.7869 260° West 374 430 38,000  Level Cleveland Center
08:01AM 41.8064 -81.9175 258° West 369 425 38,000  Level Cleveland Center
08:02AM 41.7881 -82.0481 259° West 369 425 38,000  Level Cleveland Center
08:03AM 41.7675 -82.1783 258° West 369 425 38,000  Level Cleveland Center
08:04AM 41.7531 -82.3117 262° West 369 425 38,000  Level Cleveland Center
08:05AM 41.7386 -82.4419 262° West 369 425 38,000  Level Cleveland Center
08:06AM 41.7258 -82.5725 263° West 369 425 38,000  Level Cleveland Center
08:07AM 41.7108 -82.7083 262° West 369 425 38,000  Level Cleveland Center
08:08AM 41.6958 -82.8411 261° West 369 425 38,000  Level Cleveland Center
08:09AM 41.6806 -82.9742 261° West 369 425 38,000  Level Cleveland Center
08:10AM 41.6653 -83.1042 261° West 369 425 38,000 -360 Level Cleveland Center
08:11AM 41.6497 -83.2369 261° West 369 425 37,300 -840 Descending Cleveland Center
08:12AM 41.6342 -83.3697 261° West 369 425 36,400 -960 Descending Cleveland Center
08:13AM 41.6183 -83.5053 261° West 369 425 35,400 -720 Descending Cleveland Center
08:14AM 41.6022 -83.6433 261° West 374 430 35,000 -240 Descending Cleveland Center
08:15AM 41.5858 -83.7814 261° West 374 430 35,000  Level Cleveland Center
08:16AM 41.5694 -83.9222 261° West 374 430 35,000  Level Cleveland Center
08:17AM 41.5528 -84.0544 260° West 379 436 35,000  Level Cleveland Center
08:18AM 41.5361 -84.1925 261° West 379 436 35,000 -420 Level Cleveland Center
08:19AM 41.5083 -84.4267 261° West 370 426 33,900 -1,380 Descending Chicago Center
08:21AM 41.4908 -84.5656 260° West 375 432 31,200 -1,920 Descending Chicago Center
08:22AM 41.4833 -84.7117 266° West 398 458 30,000 -600 Descending Chicago Center
08:23AM 41.4886 -84.8639 273° West 407 468 30,000  Level Chicago Center
08:24AM 41.4944 -85.0206 273° West 419 482 30,000 -840 Level Chicago Center
08:25AM 41.5000 -85.2086 272° West 421 484 28,300 -2,100 Descending Chicago Center
08:26AM 41.5050 -85.3661 272° West 419 482 25,700 -2,100 Descending Chicago Center
08:27AM 41.5097 -85.5206 272° West 403 464 24,000 -1,080 Descending Chicago Center
08:28AM 41.5150 -85.6678 273° West 394 453 23,600 -1,200 Descending Chicago Center
08:29AM 41.5186 -85.8014 272° West 357 411 21,600 -2,220 Descending Chicago Center
08:30AM 41.5222 -85.9228 272° West 331 381 19,100 -2,280 Descending Chicago Center
08:31AM 41.5253 -86.0397 272° West 317 365 17,000 -1,980 Descending Chicago Center
08:32AM 41.5236 -86.1531 269° West 307 353 15,100 -1,920 Descending Chicago Center
08:33AM 41.5236 -86.2692 270° West 312 359 13,100 -1,920 Descending Chicago Center
08:34AM 41.5231 -86.3867 270° West 317 365 11,200 -1,440 Descending Chicago Center
08:35AM 41.5222 -86.5028 269° West 315 362 10,200 -540 Descending Chicago Center
08:36AM 41.5206 -86.6400 269° West 311 358 10,100 -60 Descending Chicago Center
08:37AM 41.5206 -86.7419 270° West 317 365 10,100  Level Chicago Center
08:38AM 41.5192 -86.8764 269° West 304 350 10,100 -720 Level Chicago Center
08:39AM 41.5169 -86.9775 268° West 275 316 8,700 -1,620 Descending Chicago Center
08:40AM 41.5250 -87.0794 276° West 278 320 6,900 -1,800 Descending Chicago Center
08:40AM 41.5333 -87.1333 282° West 286 329 6,100 -660 Descending Chicago TRACON
08:41AM 41.5500 -87.2333 283° West 267 307 6,000 -60 Descending Chicago TRACON
08:42AM 41.5833 -87.3167 298° West 268 308 6,000 -60 Level Chicago TRACON
08:43AM 41.6000 -87.4167 283° West 267 307 5,900 -480 Descending Chicago TRACON
08:44AM 41.6092 -87.4828 281° West 267 307 5,300 -960 Descending Chicago Center
08:45AM 41.6153 -87.5783 275° West 264 304 4,300 -720 Descending Chicago Center
08:46AM 41.6194 -87.6772 273° West 266 306 3,900 -720 Descending Chicago Center
08:47AM 41.6144 -87.7756 266° West 267 307 2,900 -720 Descending Chicago Center
08:48AM 41.6111 -87.8667 267° West 261 300 2,500 -240 Descending Chicago Center
08:49AM 41.6558 -87.9103 324° Northwest 234 269 2,500  Level Chicago Center
08:50AM 41.6953 -87.8672 39° Northeast 198 228 2,500  Level Chicago Center
08:51AM 41.7167 -87.8333 50° Northeast 183 211 2,500 -720 Level Chicago TRACON
08:52AM 41.7500 -87.8000 37° Northeast 160 184 1,600 -780 Descending Chicago TRACON
08:53AM 41.7667 -87.7667 56° Northeast 121 139 1,000 -600 Descending Chicago TRACON